sensor_id;sensor_type;location;lat;lon;timestamp;P1;durP1;ratioP1;P2;durP2;ratioP2
33367;SDS011;19724;51.114;13.906;2023-03-01T00:01:22;53.83;;;32.72;;
33367;SDS011;19724;51.114;13.906;2023-03-01T00:03:51;62.67;;;34.60;;
33367;SDS011;19724;51.114;13.906;2023-03-01T00:06:17;57.28;;;31.80;;
33367;SDS011;19724;51.114;13.906;2023-03-01T00:08:44;58.40;;;32.88;;
33367;SDS011;19724;51.114;13.906;2023-03-01T00:13:52;53.20;;;30.88;;
33367;SDS011;19724;51.114;13.906;2023-03-01T00:16:24;49.58;;;29.45;;
33367;SDS011;19724;51.114;13.906;2023-03-01T00:18:51;53.30;;;31.23;;
33367;SDS011;19724;51.114;13.906;2023-03-01T00:21:19;51.97;;;28.95;;
33367;SDS011;19724;51.114;13.906;2023-03-01T00:23:46;51.28;;;29.92;;
33367;SDS011;19724;51.114;13.906;2023-03-01T00:26:13;51.08;;;28.65;;
33367;SDS011;19724;51.114;13.906;2023-03-01T00:28:40;53.47;;;29.23;;
33367;SDS011;19724;51.114;13.906;2023-03-01T00:31:07;54.35;;;30.48;;
33367;SDS011;19724;51.114;13.906;2023-03-01T00:33:38;51.20;;;29.17;;
33367;SDS011;19724;51.114;13.906;2023-03-01T00:36:04;44.47;;;26.48;;
33367;SDS011;19724;51.114;13.906;2023-03-01T00:38:30;43.65;;;26.05;;
33367;SDS011;19724;51.114;13.906;2023-03-01T00:41:08;51.13;;;27.63;;
33367;SDS011;19724;51.114;13.906;2023-03-01T00:43:39;49.63;;;26.67;;
33367;SDS011;19724;51.114;13.906;2023-03-01T00:46:05;43.75;;;26.35;;
33367;SDS011;19724;51.114;13.906;2023-03-01T00:48:34;47.33;;;27.95;;
33367;SDS011;19724;51.114;13.906;2023-03-01T00:51:10;48.60;;;27.60;;
33367;SDS011;19724;51.114;13.906;2023-03-01T00:53:41;40.90;;;25.48;;
33367;SDS011;19724;51.114;13.906;2023-03-01T00:56:07;54.88;;;28.77;;
33367;SDS011;19724;51.114;13.906;2023-03-01T00:58:34;45.05;;;27.55;;
33367;SDS011;19724;51.114;13.906;2023-03-01T01:01:00;51.10;;;28.05;;
33367;SDS011;19724;51.114;13.906;2023-03-01T01:03:25;41.30;;;25.45;;
33367;SDS011;19724;51.114;13.906;2023-03-01T01:05:51;47.72;;;27.08;;
33367;SDS011;19724;51.114;13.906;2023-03-01T01:08:17;49.90;;;28.30;;
33367;SDS011;19724;51.114;13.906;2023-03-01T01:10:44;52.78;;;28.83;;
33367;SDS011;19724;51.114;13.906;2023-03-01T01:13:10;49.38;;;28.45;;
33367;SDS011;19724;51.114;13.906;2023-03-01T01:15:36;43.72;;;26.92;;
33367;SDS011;19724;51.114;13.906;2023-03-01T01:18:02;45.10;;;26.48;;
33367;SDS011;19724;51.114;13.906;2023-03-01T01:20:29;50.80;;;27.35;;
33367;SDS011;19724;51.114;13.906;2023-03-01T01:22:54;48.08;;;27.23;;
33367;SDS011;19724;51.114;13.906;2023-03-01T01:25:20;42.03;;;24.50;;
33367;SDS011;19724;51.114;13.906;2023-03-01T01:27:46;43.05;;;25.98;;
33367;SDS011;19724;51.114;13.906;2023-03-01T01:30:11;41.40;;;25.50;;
33367;SDS011;19724;51.114;13.906;2023-03-01T01:32:37;45.58;;;27.70;;
33367;SDS011;19724;51.114;13.906;2023-03-01T01:35:03;48.75;;;26.52;;
33367;SDS011;19724;51.114;13.906;2023-03-01T01:37:29;49.55;;;26.83;;
33367;SDS011;19724;51.114;13.906;2023-03-01T01:39:56;45.03;;;27.73;;
33367;SDS011;19724;51.114;13.906;2023-03-01T01:42:24;41.50;;;25.80;;
33367;SDS011;19724;51.114;13.906;2023-03-01T01:45:18;44.80;;;27.17;;
33367;SDS011;19724;51.114;13.906;2023-03-01T01:47:51;43.60;;;24.58;;
33367;SDS011;19724;51.114;13.906;2023-03-01T01:50:19;44.20;;;25.33;;
33367;SDS011;19724;51.114;13.906;2023-03-01T01:52:45;44.97;;;25.42;;
33367;SDS011;19724;51.114;13.906;2023-03-01T01:55:17;40.63;;;24.30;;
33367;SDS011;19724;51.114;13.906;2023-03-01T01:57:49;37.88;;;23.75;;
33367;SDS011;19724;51.114;13.906;2023-03-01T02:00:25;40.22;;;23.77;;
33367;SDS011;19724;51.114;13.906;2023-03-01T02:02:57;43.53;;;24.83;;
33367;SDS011;19724;51.114;13.906;2023-03-01T02:08:26;44.75;;;24.35;;
33367;SDS011;19724;51.114;13.906;2023-03-01T02:10:55;41.25;;;23.85;;
33367;SDS011;19724;51.114;13.906;2023-03-01T02:13:22;45.25;;;25.20;;
33367;SDS011;19724;51.114;13.906;2023-03-01T02:15:47;45.45;;;26.15;;
33367;SDS011;19724;51.114;13.906;2023-03-01T02:18:14;45.35;;;26.38;;
33367;SDS011;19724;51.114;13.906;2023-03-01T02:23:29;38.78;;;22.80;;
33367;SDS011;19724;51.114;13.906;2023-03-01T02:25:59;42.72;;;25.17;;
33367;SDS011;19724;51.114;13.906;2023-03-01T02:28:35;42.05;;;24.25;;
33367;SDS011;19724;51.114;13.906;2023-03-01T02:31:07;40.63;;;24.38;;
33367;SDS011;19724;51.114;13.906;2023-03-01T02:33:54;42.08;;;24.27;;
33367;SDS011;19724;51.114;13.906;2023-03-01T02:36:29;39.92;;;24.15;;
33367;SDS011;19724;51.114;13.906;2023-03-01T02:38:59;42.47;;;24.27;;
33367;SDS011;19724;51.114;13.906;2023-03-01T02:41:27;46.33;;;24.80;;
33367;SDS011;19724;51.114;13.906;2023-03-01T02:43:55;49.08;;;24.92;;
33367;SDS011;19724;51.114;13.906;2023-03-01T02:46:22;42.63;;;24.13;;
33367;SDS011;19724;51.114;13.906;2023-03-01T02:48:50;41.30;;;24.17;;
33367;SDS011;19724;51.114;13.906;2023-03-01T02:54:05;45.78;;;23.63;;
33367;SDS011;19724;51.114;13.906;2023-03-01T02:56:46;43.30;;;24.40;;
33367;SDS011;19724;51.114;13.906;2023-03-01T02:59:19;48.70;;;26.02;;
33367;SDS011;19724;51.114;13.906;2023-03-01T03:01:47;41.33;;;24.92;;
33367;SDS011;19724;51.114;13.906;2023-03-01T03:04:14;54.53;;;27.95;;
33367;SDS011;19724;51.114;13.906;2023-03-01T03:06:44;43.47;;;23.73;;
33367;SDS011;19724;51.114;13.906;2023-03-01T03:09:10;43.20;;;23.80;;
33367;SDS011;19724;51.114;13.906;2023-03-01T03:11:36;44.80;;;24.63;;
33367;SDS011;19724;51.114;13.906;2023-03-01T03:14:04;49.90;;;26.80;;
33367;SDS011;19724;51.114;13.906;2023-03-01T03:16:30;45.97;;;25.77;;
33367;SDS011;19724;51.114;13.906;2023-03-01T03:18:56;46.72;;;25.15;;
33367;SDS011;19724;51.114;13.906;2023-03-01T03:21:29;41.10;;;23.33;;
33367;SDS011;19724;51.114;13.906;2023-03-01T03:23:56;47.15;;;25.60;;
33367;SDS011;19724;51.114;13.906;2023-03-01T03:26:22;44.22;;;25.45;;
33367;SDS011;19724;51.114;13.906;2023-03-01T03:28:48;37.78;;;22.63;;
33367;SDS011;19724;51.114;13.906;2023-03-01T03:31:13;42.05;;;25.13;;
33367;SDS011;19724;51.114;13.906;2023-03-01T03:33:39;36.30;;;21.73;;
33367;SDS011;19724;51.114;13.906;2023-03-01T03:36:04;42.88;;;24.30;;
33367;SDS011;19724;51.114;13.906;2023-03-01T03:38:30;45.58;;;23.95;;
33367;SDS011;19724;51.114;13.906;2023-03-01T03:41:00;43.75;;;25.00;;
33367;SDS011;19724;51.114;13.906;2023-03-01T03:43:30;40.75;;;23.25;;
33367;SDS011;19724;51.114;13.906;2023-03-01T03:45:57;46.35;;;25.00;;
33367;SDS011;19724;51.114;13.906;2023-03-01T03:48:23;44.00;;;25.70;;
33367;SDS011;19724;51.114;13.906;2023-03-01T03:50:50;37.42;;;23.77;;
33367;SDS011;19724;51.114;13.906;2023-03-01T03:53:20;40.50;;;23.55;;
33367;SDS011;19724;51.114;13.906;2023-03-01T03:55:47;45.90;;;26.17;;
33367;SDS011;19724;51.114;13.906;2023-03-01T03:58:16;43.92;;;25.55;;
33367;SDS011;19724;51.114;13.906;2023-03-01T04:00:44;42.92;;;24.10;;
33367;SDS011;19724;51.114;13.906;2023-03-01T04:03:13;41.00;;;23.00;;
33367;SDS011;19724;51.114;13.906;2023-03-01T04:05:40;40.50;;;23.08;;
33367;SDS011;19724;51.114;13.906;2023-03-01T04:08:06;42.22;;;23.58;;
33367;SDS011;19724;51.114;13.906;2023-03-01T04:10:34;42.10;;;22.85;;
33367;SDS011;19724;51.114;13.906;2023-03-01T04:13:05;42.95;;;24.98;;
33367;SDS011;19724;51.114;13.906;2023-03-01T04:15:32;40.83;;;23.70;;
33367;SDS011;19724;51.114;13.906;2023-03-01T04:17:58;43.55;;;23.92;;
33367;SDS011;19724;51.114;13.906;2023-03-01T04:20:25;43.25;;;23.77;;
33367;SDS011;19724;51.114;13.906;2023-03-01T04:23:04;42.13;;;24.80;;
33367;SDS011;19724;51.114;13.906;2023-03-01T04:25:46;41.83;;;24.20;;
33367;SDS011;19724;51.114;13.906;2023-03-01T04:28:21;39.40;;;22.17;;
33367;SDS011;19724;51.114;13.906;2023-03-01T04:30:49;41.03;;;25.17;;
33367;SDS011;19724;51.114;13.906;2023-03-01T04:33:15;41.03;;;23.65;;
33367;SDS011;19724;51.114;13.906;2023-03-01T04:35:41;44.65;;;22.92;;
33367;SDS011;19724;51.114;13.906;2023-03-01T04:38:06;41.03;;;24.60;;
33367;SDS011;19724;51.114;13.906;2023-03-01T04:40:32;45.72;;;24.40;;
33367;SDS011;19724;51.114;13.906;2023-03-01T04:42:58;46.97;;;24.98;;
33367;SDS011;19724;51.114;13.906;2023-03-01T04:45:24;40.65;;;24.30;;
33367;SDS011;19724;51.114;13.906;2023-03-01T04:47:49;42.13;;;23.15;;
33367;SDS011;19724;51.114;13.906;2023-03-01T04:50:17;42.63;;;22.67;;
33367;SDS011;19724;51.114;13.906;2023-03-01T04:52:45;44.30;;;24.42;;
33367;SDS011;19724;51.114;13.906;2023-03-01T04:55:11;41.72;;;23.75;;
33367;SDS011;19724;51.114;13.906;2023-03-01T04:57:37;49.35;;;25.17;;
33367;SDS011;19724;51.114;13.906;2023-03-01T05:00:03;44.83;;;23.17;;
33367;SDS011;19724;51.114;13.906;2023-03-01T05:02:53;44.35;;;23.75;;
33367;SDS011;19724;51.114;13.906;2023-03-01T05:05:23;42.58;;;25.02;;
33367;SDS011;19724;51.114;13.906;2023-03-01T05:07:53;50.92;;;23.85;;
33367;SDS011;19724;51.114;13.906;2023-03-01T05:10:20;42.47;;;22.90;;
33367;SDS011;19724;51.114;13.906;2023-03-01T05:12:45;47.60;;;25.75;;
33367;SDS011;19724;51.114;13.906;2023-03-01T05:15:11;42.92;;;25.50;;
33367;SDS011;19724;51.114;13.906;2023-03-01T05:17:37;46.97;;;25.60;;
33367;SDS011;19724;51.114;13.906;2023-03-01T05:20:03;41.22;;;24.88;;
33367;SDS011;19724;51.114;13.906;2023-03-01T05:22:33;41.83;;;23.08;;
33367;SDS011;19724;51.114;13.906;2023-03-01T05:24:59;45.42;;;24.65;;
33367;SDS011;19724;51.114;13.906;2023-03-01T05:27:25;43.00;;;25.30;;
33367;SDS011;19724;51.114;13.906;2023-03-01T05:29:50;40.42;;;23.42;;
33367;SDS011;19724;51.114;13.906;2023-03-01T05:32:16;44.03;;;23.38;;
33367;SDS011;19724;51.114;13.906;2023-03-01T05:34:41;45.30;;;24.60;;
33367;SDS011;19724;51.114;13.906;2023-03-01T05:37:07;40.33;;;22.63;;
33367;SDS011;19724;51.114;13.906;2023-03-01T05:39:34;44.85;;;25.02;;
33367;SDS011;19724;51.114;13.906;2023-03-01T05:42:01;42.50;;;22.58;;
33367;SDS011;19724;51.114;13.906;2023-03-01T05:44:27;40.58;;;21.75;;
33367;SDS011;19724;51.114;13.906;2023-03-01T05:46:54;42.15;;;21.98;;
33367;SDS011;19724;51.114;13.906;2023-03-01T05:49:19;35.63;;;22.38;;
33367;SDS011;19724;51.114;13.906;2023-03-01T05:51:49;37.90;;;22.10;;
33367;SDS011;19724;51.114;13.906;2023-03-01T05:54:16;42.15;;;23.20;;
33367;SDS011;19724;51.114;13.906;2023-03-01T05:56:44;44.30;;;24.08;;
33367;SDS011;19724;51.114;13.906;2023-03-01T05:59:10;47.22;;;24.90;;
33367;SDS011;19724;51.114;13.906;2023-03-01T06:01:36;40.47;;;22.75;;
33367;SDS011;19724;51.114;13.906;2023-03-01T06:04:02;46.28;;;25.25;;
33367;SDS011;19724;51.114;13.906;2023-03-01T06:06:28;49.90;;;26.25;;
33367;SDS011;19724;51.114;13.906;2023-03-01T06:08:54;42.80;;;24.25;;
33367;SDS011;19724;51.114;13.906;2023-03-01T06:11:21;38.10;;;21.45;;
33367;SDS011;19724;51.114;13.906;2023-03-01T06:13:47;45.08;;;23.58;;
33367;SDS011;19724;51.114;13.906;2023-03-01T06:16:13;37.28;;;22.02;;
33367;SDS011;19724;51.114;13.906;2023-03-01T06:18:40;41.45;;;23.10;;
33367;SDS011;19724;51.114;13.906;2023-03-01T06:21:06;36.30;;;21.25;;
33367;SDS011;19724;51.114;13.906;2023-03-01T06:23:32;44.58;;;23.30;;
33367;SDS011;19724;51.114;13.906;2023-03-01T06:25:58;36.47;;;21.52;;
33367;SDS011;19724;51.114;13.906;2023-03-01T06:28:24;43.47;;;23.15;;
33367;SDS011;19724;51.114;13.906;2023-03-01T06:30:50;49.05;;;24.90;;
33367;SDS011;19724;51.114;13.906;2023-03-01T06:33:16;40.42;;;23.25;;
33367;SDS011;19724;51.114;13.906;2023-03-01T06:35:44;45.33;;;25.80;;
33367;SDS011;19724;51.114;13.906;2023-03-01T06:38:11;42.13;;;25.40;;
33367;SDS011;19724;51.114;13.906;2023-03-01T06:40:36;46.10;;;26.02;;
33367;SDS011;19724;51.114;13.906;2023-03-01T06:43:02;47.53;;;27.92;;
33367;SDS011;19724;51.114;13.906;2023-03-01T06:45:28;46.83;;;27.88;;
33367;SDS011;19724;51.114;13.906;2023-03-01T06:48:03;50.22;;;27.77;;
33367;SDS011;19724;51.114;13.906;2023-03-01T06:50:30;49.45;;;27.13;;
33367;SDS011;19724;51.114;13.906;2023-03-01T06:52:57;49.83;;;28.33;;
33367;SDS011;19724;51.114;13.906;2023-03-01T06:55:22;47.35;;;27.70;;
33367;SDS011;19724;51.114;13.906;2023-03-01T06:57:48;45.28;;;26.88;;
33367;SDS011;19724;51.114;13.906;2023-03-01T07:00:14;47.28;;;27.30;;
33367;SDS011;19724;51.114;13.906;2023-03-01T07:02:40;52.72;;;28.33;;
33367;SDS011;19724;51.114;13.906;2023-03-01T07:05:06;52.28;;;29.90;;
33367;SDS011;19724;51.114;13.906;2023-03-01T07:07:32;41.92;;;26.80;;
33367;SDS011;19724;51.114;13.906;2023-03-01T07:09:57;60.40;;;29.63;;
33367;SDS011;19724;51.114;13.906;2023-03-01T07:12:23;50.00;;;29.80;;
33367;SDS011;19724;51.114;13.906;2023-03-01T07:14:48;50.58;;;31.05;;
33367;SDS011;19724;51.114;13.906;2023-03-01T07:17:14;50.92;;;29.00;;
33367;SDS011;19724;51.114;13.906;2023-03-01T07:19:39;47.08;;;30.20;;
33367;SDS011;19724;51.114;13.906;2023-03-01T07:22:05;50.75;;;29.08;;
33367;SDS011;19724;51.114;13.906;2023-03-01T07:24:32;55.97;;;30.15;;
33367;SDS011;19724;51.114;13.906;2023-03-01T07:26:58;50.92;;;30.80;;
33367;SDS011;19724;51.114;13.906;2023-03-01T07:29:24;51.38;;;33.08;;
33367;SDS011;19724;51.114;13.906;2023-03-01T07:31:49;51.67;;;31.85;;
33367;SDS011;19724;51.114;13.906;2023-03-01T07:34:15;57.97;;;31.35;;
33367;SDS011;19724;51.114;13.906;2023-03-01T07:36:40;52.83;;;30.88;;
33367;SDS011;19724;51.114;13.906;2023-03-01T07:39:08;52.75;;;31.48;;
33367;SDS011;19724;51.114;13.906;2023-03-01T07:41:34;53.88;;;32.17;;
33367;SDS011;19724;51.114;13.906;2023-03-01T07:44:00;61.33;;;31.05;;
33367;SDS011;19724;51.114;13.906;2023-03-01T07:46:25;47.75;;;30.52;;
33367;SDS011;19724;51.114;13.906;2023-03-01T07:48:51;50.25;;;30.48;;
33367;SDS011;19724;51.114;13.906;2023-03-01T07:51:16;54.65;;;31.77;;
33367;SDS011;19724;51.114;13.906;2023-03-01T07:53:42;54.38;;;30.60;;
33367;SDS011;19724;51.114;13.906;2023-03-01T07:56:11;58.78;;;32.65;;
33367;SDS011;19724;51.114;13.906;2023-03-01T07:58:39;65.65;;;31.30;;
33367;SDS011;19724;51.114;13.906;2023-03-01T08:01:07;60.28;;;30.65;;
33367;SDS011;19724;51.114;13.906;2023-03-01T08:03:34;50.75;;;30.80;;
33367;SDS011;19724;51.114;13.906;2023-03-01T08:06:03;53.80;;;32.20;;
33367;SDS011;19724;51.114;13.906;2023-03-01T08:08:30;48.83;;;29.08;;
33367;SDS011;19724;51.114;13.906;2023-03-01T08:10:57;49.50;;;30.85;;
33367;SDS011;19724;51.114;13.906;2023-03-01T08:13:24;53.55;;;32.00;;
33367;SDS011;19724;51.114;13.906;2023-03-01T08:15:49;54.22;;;31.08;;
33367;SDS011;19724;51.114;13.906;2023-03-01T08:18:15;58.13;;;31.88;;
33367;SDS011;19724;51.114;13.906;2023-03-01T08:20:42;56.15;;;30.65;;
33367;SDS011;19724;51.114;13.906;2023-03-01T08:23:07;47.40;;;30.10;;
33367;SDS011;19724;51.114;13.906;2023-03-01T08:25:33;56.03;;;30.10;;
33367;SDS011;19724;51.114;13.906;2023-03-01T08:27:58;52.83;;;31.15;;
33367;SDS011;19724;51.114;13.906;2023-03-01T08:30:24;51.70;;;31.63;;
33367;SDS011;19724;51.114;13.906;2023-03-01T08:32:50;52.03;;;30.80;;
33367;SDS011;19724;51.114;13.906;2023-03-01T08:35:16;48.67;;;32.30;;
33367;SDS011;19724;51.114;13.906;2023-03-01T08:37:42;53.60;;;31.80;;
33367;SDS011;19724;51.114;13.906;2023-03-01T08:40:08;51.22;;;29.58;;
33367;SDS011;19724;51.114;13.906;2023-03-01T08:42:35;47.40;;;28.95;;
33367;SDS011;19724;51.114;13.906;2023-03-01T08:45:02;42.45;;;27.38;;
33367;SDS011;19724;51.114;13.906;2023-03-01T08:47:28;48.88;;;29.60;;
33367;SDS011;19724;51.114;13.906;2023-03-01T08:49:54;39.05;;;26.75;;
33367;SDS011;19724;51.114;13.906;2023-03-01T08:52:20;40.88;;;27.83;;
33367;SDS011;19724;51.114;13.906;2023-03-01T08:54:49;50.92;;;30.17;;
33367;SDS011;19724;51.114;13.906;2023-03-01T08:57:14;42.33;;;28.48;;
33367;SDS011;19724;51.114;13.906;2023-03-01T08:59:40;47.20;;;28.00;;
33367;SDS011;19724;51.114;13.906;2023-03-01T09:02:08;44.15;;;29.52;;
33367;SDS011;19724;51.114;13.906;2023-03-01T09:04:37;44.45;;;28.60;;
33367;SDS011;19724;51.114;13.906;2023-03-01T09:07:03;44.95;;;26.98;;
33367;SDS011;19724;51.114;13.906;2023-03-01T09:09:28;48.25;;;27.73;;
33367;SDS011;19724;51.114;13.906;2023-03-01T09:11:54;41.45;;;27.10;;
33367;SDS011;19724;51.114;13.906;2023-03-01T09:14:20;41.50;;;25.92;;
33367;SDS011;19724;51.114;13.906;2023-03-01T09:16:45;48.28;;;29.88;;
33367;SDS011;19724;51.114;13.906;2023-03-01T09:19:11;46.72;;;26.88;;
33367;SDS011;19724;51.114;13.906;2023-03-01T09:21:37;40.75;;;26.75;;
33367;SDS011;19724;51.114;13.906;2023-03-01T09:24:02;43.03;;;28.40;;
33367;SDS011;19724;51.114;13.906;2023-03-01T09:26:28;38.95;;;26.67;;
33367;SDS011;19724;51.114;13.906;2023-03-01T09:28:54;37.65;;;27.08;;
33367;SDS011;19724;51.114;13.906;2023-03-01T09:31:21;34.80;;;26.33;;
33367;SDS011;19724;51.114;13.906;2023-03-01T09:33:49;37.53;;;26.40;;
33367;SDS011;19724;51.114;13.906;2023-03-01T09:36:17;40.28;;;26.75;;
33367;SDS011;19724;51.114;13.906;2023-03-01T09:38:44;40.85;;;26.75;;
33367;SDS011;19724;51.114;13.906;2023-03-01T09:41:21;47.97;;;26.20;;
33367;SDS011;19724;51.114;13.906;2023-03-01T09:46:38;36.42;;;24.73;;
33367;SDS011;19724;51.114;13.906;2023-03-01T09:49:12;36.78;;;24.02;;
33367;SDS011;19724;51.114;13.906;2023-03-01T09:51:42;35.83;;;25.57;;
33367;SDS011;19724;51.114;13.906;2023-03-01T09:54:15;38.95;;;25.65;;
33367;SDS011;19724;51.114;13.906;2023-03-01T10:05:30;32.08;;;21.95;;
33367;SDS011;19724;51.114;13.906;2023-03-01T10:10:31;36.17;;;24.02;;
33367;SDS011;19724;51.114;13.906;2023-03-01T10:13:00;37.13;;;25.15;;
33367;SDS011;19724;51.114;13.906;2023-03-01T10:15:43;33.75;;;22.80;;
33367;SDS011;19724;51.114;13.906;2023-03-01T10:18:15;38.60;;;22.77;;
33367;SDS011;19724;51.114;13.906;2023-03-01T10:20:55;36.03;;;22.13;;
33367;SDS011;19724;51.114;13.906;2023-03-01T10:23:27;43.42;;;23.85;;
33367;SDS011;19724;51.114;13.906;2023-03-01T10:31:18;30.98;;;21.05;;
33367;SDS011;19724;51.114;13.906;2023-03-01T10:33:47;29.88;;;20.73;;
33367;SDS011;19724;51.114;13.906;2023-03-01T10:36:16;27.73;;;20.00;;
33367;SDS011;19724;51.114;13.906;2023-03-01T10:38:55;27.85;;;20.08;;
33367;SDS011;19724;51.114;13.906;2023-03-01T10:41:23;28.40;;;20.65;;
33367;SDS011;19724;51.114;13.906;2023-03-01T10:43:51;29.83;;;19.95;;
33367;SDS011;19724;51.114;13.906;2023-03-01T10:46:22;31.60;;;21.38;;
33367;SDS011;19724;51.114;13.906;2023-03-01T10:49:04;31.55;;;19.70;;
33367;SDS011;19724;51.114;13.906;2023-03-01T10:51:30;32.28;;;20.70;;
33367;SDS011;19724;51.114;13.906;2023-03-01T10:53:56;27.48;;;19.10;;
33367;SDS011;19724;51.114;13.906;2023-03-01T10:56:21;25.50;;;17.83;;
33367;SDS011;19724;51.114;13.906;2023-03-01T10:58:58;31.05;;;18.65;;
33367;SDS011;19724;51.114;13.906;2023-03-01T11:01:25;24.42;;;16.83;;
33367;SDS011;19724;51.114;13.906;2023-03-01T11:06:33;28.13;;;18.20;;
33367;SDS011;19724;51.114;13.906;2023-03-01T11:11:40;26.33;;;18.55;;
33367;SDS011;19724;51.114;13.906;2023-03-01T11:14:07;28.88;;;19.05;;
33367;SDS011;19724;51.114;13.906;2023-03-01T11:16:43;28.95;;;17.77;;
33367;SDS011;19724;51.114;13.906;2023-03-01T11:24:15;23.95;;;17.67;;
33367;SDS011;19724;51.114;13.906;2023-03-01T11:26:43;31.63;;;19.70;;
33367;SDS011;19724;51.114;13.906;2023-03-01T11:29:21;29.30;;;20.92;;
33367;SDS011;19724;51.114;13.906;2023-03-01T11:32:02;28.92;;;19.80;;
33367;SDS011;19724;51.114;13.906;2023-03-01T11:34:43;27.48;;;20.83;;
33367;SDS011;19724;51.114;13.906;2023-03-01T11:37:21;30.33;;;20.42;;
33367;SDS011;19724;51.114;13.906;2023-03-01T11:42:40;30.88;;;20.90;;
33367;SDS011;19724;51.114;13.906;2023-03-01T11:45:10;30.00;;;21.00;;
33367;SDS011;19724;51.114;13.906;2023-03-01T11:58:59;29.90;;;22.10;;
33367;SDS011;19724;51.114;13.906;2023-03-01T12:04:28;27.88;;;20.45;;
33367;SDS011;19724;51.114;13.906;2023-03-01T12:07:11;26.00;;;20.83;;
33367;SDS011;19724;51.114;13.906;2023-03-01T12:23:51;30.67;;;22.67;;
33367;SDS011;19724;51.114;13.906;2023-03-01T12:26:33;30.38;;;21.35;;
33367;SDS011;19724;51.114;13.906;2023-03-01T12:39:34;29.48;;;21.33;;
33367;SDS011;19724;51.114;13.906;2023-03-01T12:42:02;31.33;;;21.42;;
33367;SDS011;19724;51.114;13.906;2023-03-01T12:50:24;29.60;;;20.83;;
33367;SDS011;19724;51.114;13.906;2023-03-01T12:53:20;32.55;;;22.98;;
33367;SDS011;19724;51.114;13.906;2023-03-01T12:55:49;36.22;;;23.08;;
33367;SDS011;19724;51.114;13.906;2023-03-01T13:06:58;35.42;;;23.42;;
33367;SDS011;19724;51.114;13.906;2023-03-01T13:17:56;27.73;;;20.27;;
33367;SDS011;19724;51.114;13.906;2023-03-01T13:20:34;33.15;;;21.77;;
33367;SDS011;19724;51.114;13.906;2023-03-01T13:31:07;32.30;;;24.13;;
33367;SDS011;19724;51.114;13.906;2023-03-01T13:33:39;32.13;;;23.00;;
33367;SDS011;19724;51.114;13.906;2023-03-01T13:36:07;35.85;;;25.08;;
33367;SDS011;19724;51.114;13.906;2023-03-01T13:38:38;27.13;;;21.65;;
33367;SDS011;19724;51.114;13.906;2023-03-01T13:47:05;29.65;;;21.10;;
33367;SDS011;19724;51.114;13.906;2023-03-01T13:52:42;32.60;;;22.05;;
33367;SDS011;19724;51.114;13.906;2023-03-01T13:55:17;30.42;;;21.60;;
33367;SDS011;19724;51.114;13.906;2023-03-01T13:57:50;29.80;;;20.23;;
33367;SDS011;19724;51.114;13.906;2023-03-01T14:00:27;32.05;;;22.70;;
33367;SDS011;19724;51.114;13.906;2023-03-01T14:03:01;31.83;;;20.27;;
33367;SDS011;19724;51.114;13.906;2023-03-01T14:05:29;29.48;;;21.42;;
33367;SDS011;19724;51.114;13.906;2023-03-01T14:07:55;31.25;;;23.10;;
33367;SDS011;19724;51.114;13.906;2023-03-01T14:10:21;29.80;;;21.63;;
33367;SDS011;19724;51.114;13.906;2023-03-01T14:12:50;32.70;;;22.83;;
33367;SDS011;19724;51.114;13.906;2023-03-01T14:15:37;32.50;;;21.85;;
33367;SDS011;19724;51.114;13.906;2023-03-01T14:20:43;34.22;;;22.85;;
33367;SDS011;19724;51.114;13.906;2023-03-01T14:23:17;29.13;;;20.13;;
33367;SDS011;19724;51.114;13.906;2023-03-01T14:25:51;30.98;;;21.13;;
33367;SDS011;19724;51.114;13.906;2023-03-01T14:30:58;31.63;;;20.73;;
33367;SDS011;19724;51.114;13.906;2023-03-01T14:33:26;28.13;;;19.05;;
33367;SDS011;19724;51.114;13.906;2023-03-01T14:36:08;32.95;;;21.63;;
33367;SDS011;19724;51.114;13.906;2023-03-01T14:41:09;27.92;;;19.58;;
33367;SDS011;19724;51.114;13.906;2023-03-01T14:44:14;25.80;;;19.58;;
33367;SDS011;19724;51.114;13.906;2023-03-01T14:46:38;29.23;;;19.10;;
33367;SDS011;19724;51.114;13.906;2023-03-01T14:49:27;25.25;;;18.42;;
33367;SDS011;19724;51.114;13.906;2023-03-01T14:51:56;26.65;;;19.75;;
33367;SDS011;19724;51.114;13.906;2023-03-01T14:54:27;33.60;;;20.05;;
33367;SDS011;19724;51.114;13.906;2023-03-01T14:57:00;25.90;;;18.55;;
33367;SDS011;19724;51.114;13.906;2023-03-01T14:59:27;26.90;;;19.13;;
33367;SDS011;19724;51.114;13.906;2023-03-01T15:01:53;29.88;;;19.83;;
33367;SDS011;19724;51.114;13.906;2023-03-01T15:04:21;25.75;;;18.98;;
33367;SDS011;19724;51.114;13.906;2023-03-01T15:06:55;29.90;;;18.17;;
33367;SDS011;19724;51.114;13.906;2023-03-01T15:09:36;23.88;;;17.67;;
33367;SDS011;19724;51.114;13.906;2023-03-01T15:12:23;26.63;;;17.08;;
33367;SDS011;19724;51.114;13.906;2023-03-01T15:14:55;26.05;;;17.83;;
33367;SDS011;19724;51.114;13.906;2023-03-01T15:17:34;26.20;;;17.80;;
33367;SDS011;19724;51.114;13.906;2023-03-01T15:20:04;25.67;;;16.55;;
33367;SDS011;19724;51.114;13.906;2023-03-01T15:22:45;28.50;;;18.48;;
33367;SDS011;19724;51.114;13.906;2023-03-01T15:25:19;28.52;;;18.02;;
33367;SDS011;19724;51.114;13.906;2023-03-01T15:27:48;27.95;;;17.50;;
33367;SDS011;19724;51.114;13.906;2023-03-01T15:30:22;35.40;;;18.33;;
33367;SDS011;19724;51.114;13.906;2023-03-01T15:35:53;27.15;;;18.40;;
33367;SDS011;19724;51.114;13.906;2023-03-01T15:38:24;25.02;;;16.95;;
33367;SDS011;19724;51.114;13.906;2023-03-01T15:41:03;24.70;;;17.17;;
33367;SDS011;19724;51.114;13.906;2023-03-01T15:43:41;24.90;;;17.83;;
33367;SDS011;19724;51.114;13.906;2023-03-01T15:48:47;26.48;;;17.23;;
33367;SDS011;19724;51.114;13.906;2023-03-01T15:51:17;25.23;;;16.90;;
33367;SDS011;19724;51.114;13.906;2023-03-01T15:53:45;27.80;;;17.27;;
33367;SDS011;19724;51.114;13.906;2023-03-01T15:56:16;25.45;;;16.42;;
33367;SDS011;19724;51.114;13.906;2023-03-01T15:58:41;26.90;;;17.52;;
33367;SDS011;19724;51.114;13.906;2023-03-01T16:01:13;25.35;;;16.80;;
33367;SDS011;19724;51.114;13.906;2023-03-01T16:03:41;32.13;;;18.20;;
33367;SDS011;19724;51.114;13.906;2023-03-01T16:06:10;27.35;;;17.58;;
33367;SDS011;19724;51.114;13.906;2023-03-01T16:08:37;29.95;;;18.95;;
33367;SDS011;19724;51.114;13.906;2023-03-01T16:11:04;29.58;;;16.77;;
33367;SDS011;19724;51.114;13.906;2023-03-01T16:13:30;28.58;;;17.13;;
33367;SDS011;19724;51.114;13.906;2023-03-01T16:15:57;32.63;;;18.48;;
33367;SDS011;19724;51.114;13.906;2023-03-01T16:18:23;22.05;;;17.13;;
33367;SDS011;19724;51.114;13.906;2023-03-01T16:20:49;27.35;;;18.80;;
33367;SDS011;19724;51.114;13.906;2023-03-01T16:23:15;38.72;;;19.35;;
33367;SDS011;19724;51.114;13.906;2023-03-01T16:25:40;32.10;;;17.00;;
33367;SDS011;19724;51.114;13.906;2023-03-01T16:28:06;29.10;;;16.77;;
33367;SDS011;19724;51.114;13.906;2023-03-01T16:30:35;33.47;;;18.90;;
33367;SDS011;19724;51.114;13.906;2023-03-01T16:33:02;25.70;;;17.05;;
33367;SDS011;19724;51.114;13.906;2023-03-01T16:35:27;26.27;;;17.38;;